sensor_id;sensor_type;location;lat;lon;timestamp;pressure;altitude;pressure_sealevel;temperature;humidity
62126;BME280;69591;53.282;6.150;2023-07-29T00:00:03;100710.94;;;22.11;60.61
62126;BME280;69591;53.282;6.150;2023-07-29T00:01:12;100715.31;;;21.86;60.63
62126;BME280;69591;53.282;6.150;2023-07-29T00:02:14;100709.56;;;22.00;60.32
62126;BME280;69591;53.282;6.150;2023-07-29T00:03:16;100718.53;;;22.04;60.64
62126;BME280;69591;53.282;6.150;2023-07-29T00:04:18;100713.38;;;22.06;60.14
62126;BME280;69591;53.282;6.150;2023-07-29T00:05:19;100711.41;;;22.06;60.43
62126;BME280;69591;53.282;6.150;2023-07-29T00:06:21;100707.44;;;22.07;60.69
62126;BME280;69591;53.282;6.150;2023-07-29T00:07:23;100707.44;;;22.07;60.72
62126;BME280;69591;53.282;6.150;2023-07-29T00:08:24;100703.94;;;22.07;60.60
62126;BME280;69591;53.282;6.150;2023-07-29T00:09:26;100697.25;;;22.08;60.17
62126;BME280;69591;53.282;6.150;2023-07-29T00:10:28;100702.75;;;22.08;60.60
62126;BME280;69591;53.282;6.150;2023-07-29T00:11:29;100699.19;;;22.07;60.51
62126;BME280;69591;53.282;6.150;2023-07-29T00:12:32;100701.94;;;22.07;60.52
62126;BME280;69591;53.282;6.150;2023-07-29T00:13:34;100700.78;;;22.08;60.58
62126;BME280;69591;53.282;6.150;2023-07-29T00:14:37;100696.81;;;22.09;60.63
62126;BME280;69591;53.282;6.150;2023-07-29T00:15:38;100696.44;;;22.07;60.72
62126;BME280;69591;53.282;6.150;2023-07-29T00:16:40;100693.69;;;22.07;60.63
62126;BME280;69591;53.282;6.150;2023-07-29T00:17:42;100689.78;;;22.08;60.74
62126;BME280;69591;53.282;6.150;2023-07-29T00:18:43;100688.97;;;22.08;60.57
62126;BME280;69591;53.282;6.150;2023-07-29T00:19:45;100685.44;;;22.07;60.66
62126;BME280;69591;53.282;6.150;2023-07-29T00:20:47;100690.53;;;22.09;60.36
62126;BME280;69591;53.282;6.150;2023-07-29T00:21:48;100692.53;;;22.08;60.51
62126;BME280;69591;53.282;6.150;2023-07-29T00:22:50;100691.72;;;22.08;60.58
62126;BME280;69591;53.282;6.150;2023-07-29T00:23:52;100694.47;;;22.08;60.54
62126;BME280;69591;53.282;6.150;2023-07-29T00:24:54;100687.78;;;22.09;60.51
62126;BME280;69591;53.282;6.150;2023-07-29T00:25:55;100689.78;;;22.08;60.75
62126;BME280;69591;53.282;6.150;2023-07-29T00:26:57;100691.72;;;22.08;60.30
62126;BME280;69591;53.282;6.150;2023-07-29T00:27:59;100688.19;;;22.07;60.20
62126;BME280;69591;53.282;6.150;2023-07-29T00:29:00;100688.97;;;22.08;60.13
62126;BME280;69591;53.282;6.150;2023-07-29T00:30:04;100692.53;;;22.08;60.43
62126;BME280;69591;53.282;6.150;2023-07-29T00:31:06;100687.03;;;22.08;60.29
62126;BME280;69591;53.282;6.150;2023-07-29T00:32:08;100692.53;;;22.08;60.75
62126;BME280;69591;53.282;6.150;2023-07-29T00:33:10;100688.19;;;22.07;60.20
62126;BME280;69591;53.282;6.150;2023-07-29T00:34:12;100688.19;;;22.07;60.34
62126;BME280;69591;53.282;6.150;2023-07-29T00:35:14;100693.69;;;22.07;60.44
62126;BME280;69591;53.282;6.150;2023-07-29T00:36:16;100693.69;;;22.07;60.63
62126;BME280;69591;53.282;6.150;2023-07-29T00:37:19;100687.44;;;22.07;60.33
62126;BME280;69591;53.282;6.150;2023-07-29T00:38:20;100677.19;;;22.07;60.70
62126;BME280;69591;53.282;6.150;2023-07-29T00:39:22;100682.69;;;22.07;60.74
62126;BME280;69591;53.282;6.150;2023-07-29T00:40:24;100688.19;;;22.07;60.57
62126;BME280;69591;53.282;6.150;2023-07-29T00:41:26;100682.69;;;22.07;60.12
62126;BME280;69591;53.282;6.150;2023-07-29T00:42:27;100674.44;;;22.07;60.79
62126;BME280;69591;53.282;6.150;2023-07-29T00:43:29;100674.88;;;22.06;60.82
62126;BME280;69591;53.282;6.150;2023-07-29T00:44:31;100676.44;;;22.07;60.13
62126;BME280;69591;53.282;6.150;2023-07-29T00:45:37;100671.69;;;22.07;60.60
62126;BME280;69591;53.282;6.150;2023-07-29T00:46:41;100672.13;;;22.06;60.38
62126;BME280;69591;53.282;6.150;2023-07-29T00:47:43;100672.13;;;22.06;60.13
62126;BME280;69591;53.282;6.150;2023-07-29T00:48:45;100677.63;;;22.06;60.38
62126;BME280;69591;53.282;6.150;2023-07-29T00:49:47;100671.38;;;22.05;60.53
62126;BME280;69591;53.282;6.150;2023-07-29T00:50:49;100674.88;;;22.06;60.16
62126;BME280;69591;53.282;6.150;2023-07-29T00:51:51;100674.13;;;22.05;60.56
62126;BME280;69591;53.282;6.150;2023-07-29T00:52:53;100667.06;;;22.04;60.63
62126;BME280;69591;53.282;6.150;2023-07-29T00:53:57;100669.81;;;22.04;60.74
62126;BME280;69591;53.282;6.150;2023-07-29T00:54:59;100673.34;;;22.05;60.69
62126;BME280;69591;53.282;6.150;2023-07-29T00:56:00;100671.38;;;22.05;60.81
62126;BME280;69591;53.282;6.150;2023-07-29T00:57:02;100669.38;;;22.06;60.35
62126;BME280;69591;53.282;6.150;2023-07-29T00:58:04;100667.06;;;22.04;60.42
62126;BME280;69591;53.282;6.150;2023-07-29T00:59:07;100669.81;;;22.04;60.53
62126;BME280;69591;53.282;6.150;2023-07-29T01:00:09;100659.59;;;22.05;60.74
62126;BME280;69591;53.282;6.150;2023-07-29T01:01:13;100656.06;;;22.04;60.44
62126;BME280;69591;53.282;6.150;2023-07-29T01:02:15;100663.53;;;22.04;60.70
62126;BME280;69591;53.282;6.150;2023-07-29T01:03:17;100659.22;;;22.03;60.74
62126;BME280;69591;53.282;6.150;2023-07-29T01:04:19;100665.50;;;22.03;60.95
62126;BME280;69591;53.282;6.150;2023-07-29T01:05:21;100659.22;;;22.03;60.72
62126;BME280;69591;53.282;6.150;2023-07-29T01:06:27;100655.28;;;22.04;60.25
62126;BME280;69591;53.282;6.150;2023-07-29T01:07:36;100663.19;;;22.02;60.40
62126;BME280;69591;53.282;6.150;2023-07-29T01:08:46;100659.28;;;21.99;60.46
62126;BME280;69591;53.282;6.150;2023-07-29T01:09:55;100657.75;;;21.98;60.78
62126;BME280;69591;53.282;6.150;2023-07-29T01:11:03;100664.03;;;21.99;60.63
62126;BME280;69591;53.282;6.150;2023-07-29T01:12:16;100661.69;;;21.97;60.91
62126;BME280;69591;53.282;6.150;2023-07-29T01:13:26;100660.13;;;21.96;60.60
62126;BME280;69591;53.282;6.150;2023-07-29T01:14:36;100656.22;;;21.97;60.84
62126;BME280;69591;53.282;6.150;2023-07-29T01:15:43;100656.22;;;21.97;60.77
62126;BME280;69591;53.282;6.150;2023-07-29T01:16:52;100661.69;;;21.97;60.90
62126;BME280;69591;53.282;6.150;2023-07-29T01:17:55;100650.72;;;21.97;60.53
62126;BME280;69591;53.282;6.150;2023-07-29T01:18:58;100646.38;;;21.96;60.53
62126;BME280;69591;53.282;6.150;2023-07-29T01:20:07;100653.47;;;21.97;60.96
62126;BME280;69591;53.282;6.150;2023-07-29T01:21:10;100650.72;;;21.97;61.08
62126;BME280;69591;53.282;6.150;2023-07-29T01:22:13;100649.50;;;21.98;61.08
62126;BME280;69591;53.282;6.150;2023-07-29T01:23:15;100654.31;;;21.94;61.00
62126;BME280;69591;53.282;6.150;2023-07-29T01:24:19;100655.00;;;21.98;60.70
62126;BME280;69591;53.282;6.150;2023-07-29T01:25:20;100647.97;;;21.97;60.56
62126;BME280;69591;53.282;6.150;2023-07-29T01:26:22;100649.91;;;21.97;60.68
62126;BME280;69591;53.282;6.150;2023-07-29T01:27:23;100645.22;;;21.97;60.98
62126;BME280;69591;53.282;6.150;2023-07-29T01:28:26;100650.72;;;21.97;60.71
62126;BME280;69591;53.282;6.150;2023-07-29T01:29:29;100651.88;;;21.96;61.01
62126;BME280;69591;53.282;6.150;2023-07-29T01:30:35;100647.97;;;21.97;60.68
62126;BME280;69591;53.282;6.150;2023-07-29T01:31:43;100650.34;;;21.95;60.92
62126;BME280;69591;53.282;6.150;2023-07-29T01:32:51;100655.06;;;21.95;60.57
62126;BME280;69591;53.282;6.150;2023-07-29T01:33:58;100648.03;;;21.94;61.10
62126;BME280;69591;53.282;6.150;2023-07-29T01:35:08;100646.44;;;21.93;61.12
62126;BME280;69591;53.282;6.150;2023-07-29T01:36:11;100644.50;;;21.70;61.49
62126;BME280;69591;53.282;6.150;2023-07-29T01:37:17;100639.97;;;21.83;61.04
62126;BME280;69591;53.282;6.150;2023-07-29T01:38:27;100644.63;;;21.86;61.35
62126;BME280;69591;53.282;6.150;2023-07-29T01:39:32;100646.19;;;21.87;61.06
62126;BME280;69591;53.282;6.150;2023-07-29T01:40:36;100655.22;;;21.88;60.82
62126;BME280;69591;53.282;6.150;2023-07-29T01:41:39;100641.03;;;21.89;61.09
62126;BME280;69591;53.282;6.150;2023-07-29T01:42:42;100639.47;;;21.88;61.12
62126;BME280;69591;53.282;6.150;2023-07-29T01:43:46;100632.78;;;21.89;60.91
62126;BME280;69591;53.282;6.150;2023-07-29T01:44:48;100640.25;;;21.89;61.34
62126;BME280;69591;53.282;6.150;2023-07-29T01:45:50;100633.63;;;21.86;60.89
62126;BME280;69591;53.282;6.150;2023-07-29T01:46:52;100638.28;;;21.89;61.24
62126;BME280;69591;53.282;6.150;2023-07-29T01:47:53;100632.78;;;21.89;60.81
62126;BME280;69591;53.282;6.150;2023-07-29T01:48:55;100632.00;;;21.89;60.80
62126;BME280;69591;53.282;6.150;2023-07-29T01:49:57;100632.78;;;21.89;60.89
62126;BME280;69591;53.282;6.150;2023-07-29T01:50:59;100633.53;;;21.90;61.23
62126;BME280;69591;53.282;6.150;2023-07-29T01:52:01;100628.06;;;21.90;61.06
62126;BME280;69591;53.282;6.150;2023-07-29T01:53:02;100627.28;;;21.89;61.42
62126;BME280;69591;53.282;6.150;2023-07-29T01:54:04;100624.53;;;21.89;60.95
62126;BME280;69591;53.282;6.150;2023-07-29T01:55:08;100624.88;;;21.91;61.21
62126;BME280;69591;53.282;6.150;2023-07-29T01:56:09;100624.53;;;21.89;61.27
62126;BME280;69591;53.282;6.150;2023-07-29T01:57:15;100632.00;;;21.89;61.08
62126;BME280;69591;53.282;6.150;2023-07-29T01:58:17;100626.50;;;21.89;61.40
62126;BME280;69591;53.282;6.150;2023-07-29T01:59:21;100630.03;;;21.89;61.38
62126;BME280;69591;53.282;6.150;2023-07-29T02:00:23;100626.50;;;21.89;61.44
62126;BME280;69591;53.282;6.150;2023-07-29T02:01:25;100630.03;;;21.89;61.09
62126;BME280;69591;53.282;6.150;2023-07-29T02:02:26;100621.78;;;21.89;60.89
62126;BME280;69591;53.282;6.150;2023-07-29T02:03:28;100630.03;;;21.89;61.42
62126;BME280;69591;53.282;6.150;2023-07-29T02:04:30;100621.78;;;21.89;61.47
62126;BME280;69591;53.282;6.150;2023-07-29T02:05:31;100620.66;;;21.87;61.10
62126;BME280;69591;53.282;6.150;2023-07-29T02:06:33;100626.50;;;21.89;61.13
62126;BME280;69591;53.282;6.150;2023-07-29T02:07:35;100623.75;;;21.89;61.29
62126;BME280;69591;53.282;6.150;2023-07-29T02:08:37;100630.03;;;21.89;61.43
62126;BME280;69591;53.282;6.150;2023-07-29T02:09:39;100625.72;;;21.88;61.37
62126;BME280;69591;53.282;6.150;2023-07-29T02:10:42;100627.28;;;21.89;61.44
62126;BME280;69591;53.282;6.150;2023-07-29T02:11:44;100626.50;;;21.89;61.09
62126;BME280;69591;53.282;6.150;2023-07-29T02:12:45;100614.72;;;21.88;61.50
62126;BME280;69591;53.282;6.150;2023-07-29T02:13:47;100620.22;;;21.88;61.47
62126;BME280;69591;53.282;6.150;2023-07-29T02:14:49;100621.78;;;21.89;61.06
62126;BME280;69591;53.282;6.150;2023-07-29T02:15:50;100621.00;;;21.89;61.06
62126;BME280;69591;53.282;6.150;2023-07-29T02:16:52;100618.69;;;21.87;60.92
62126;BME280;69591;53.282;6.150;2023-07-29T02:17:54;100625.72;;;21.88;61.21
62126;BME280;69591;53.282;6.150;2023-07-29T02:18:56;100627.28;;;21.89;61.10
62126;BME280;69591;53.282;6.150;2023-07-29T02:19:57;100622.97;;;21.88;60.97
62126;BME280;69591;53.282;6.150;2023-07-29T02:20:59;100620.22;;;21.88;61.34
62126;BME280;69591;53.282;6.150;2023-07-29T02:22:01;100625.72;;;21.88;61.50
62126;BME280;69591;53.282;6.150;2023-07-29T02:23:02;100620.22;;;21.88;60.91
62126;BME280;69591;53.282;6.150;2023-07-29T02:24:04;100614.72;;;21.88;61.27
62126;BME280;69591;53.282;6.150;2023-07-29T02:25:07;100619.03;;;21.89;61.42
62126;BME280;69591;53.282;6.150;2023-07-29T02:26:10;100613.56;;;21.89;61.10
62126;BME280;69591;53.282;6.150;2023-07-29T02:27:12;100619.47;;;21.88;61.23
62126;BME280;69591;53.282;6.150;2023-07-29T02:28:13;100613.97;;;21.88;61.39
62126;BME280;69591;53.282;6.150;2023-07-29T02:29:15;100611.97;;;21.88;61.27
62126;BME280;69591;53.282;6.150;2023-07-29T02:30:17;100611.97;;;21.88;61.48
62126;BME280;69591;53.282;6.150;2023-07-29T02:31:21;100621.78;;;21.89;61.24
62126;BME280;69591;53.282;6.150;2023-07-29T02:32:23;100621.44;;;21.87;60.91
62126;BME280;69591;53.282;6.150;2023-07-29T02:33:25;100613.19;;;21.87;60.94
62126;BME280;69591;53.282;6.150;2023-07-29T02:34:27;100624.97;;;21.88;61.08
62126;BME280;69591;53.282;6.150;2023-07-29T02:35:28;100621.44;;;21.87;61.12
62126;BME280;69591;53.282;6.150;2023-07-29T02:36:32;100619.53;;;21.84;61.04
62126;BME280;69591;53.282;6.150;2023-07-29T02:37:34;100613.19;;;21.87;61.01
62126;BME280;69591;53.282;6.150;2023-07-29T02:38:35;100617.91;;;21.87;61.09
62126;BME280;69591;53.282;6.150;2023-07-29T02:39:37;100610.44;;;21.87;61.39
62126;BME280;69591;53.282;6.150;2023-07-29T02:40:39;100610.06;;;21.85;61.11
62126;BME280;69591;53.282;6.150;2023-07-29T02:41:42;100616.72;;;21.88;61.09
62126;BME280;69591;53.282;6.150;2023-07-29T02:42:44;100611.66;;;21.86;61.17
62126;BME280;69591;53.282;6.150;2023-07-29T02:43:48;100607.69;;;21.87;61.22
62126;BME280;69591;53.282;6.150;2023-07-29T02:44:50;100611.28;;;21.84;61.32
62126;BME280;69591;53.282;6.150;2023-07-29T02:45:52;100605.78;;;21.84;61.11
62126;BME280;69591;53.282;6.150;2023-07-29T02:46:54;100600.28;;;21.84;61.34
62126;BME280;69591;53.282;6.150;2023-07-29T02:47:55;100611.28;;;21.84;61.31
62126;BME280;69591;53.282;6.150;2023-07-29T02:48:57;100611.28;;;21.84;61.17
62126;BME280;69591;53.282;6.150;2023-07-29T02:49:59;100612.50;;;21.83;61.59
62126;BME280;69591;53.282;6.150;2023-07-29T02:51:00;100607.00;;;21.83;61.26
62126;BME280;69591;53.282;6.150;2023-07-29T02:52:02;100608.53;;;21.84;61.31
62126;BME280;69591;53.282;6.150;2023-07-29T02:53:04;100606.22;;;21.83;61.46
62126;BME280;69591;53.282;6.150;2023-07-29T02:54:06;100612.50;;;21.83;61.15
62126;BME280;69591;53.282;6.150;2023-07-29T02:55:08;100609.75;;;21.83;61.04
62126;BME280;69591;53.282;6.150;2023-07-29T02:56:09;100607.00;;;21.83;61.39
62126;BME280;69591;53.282;6.150;2023-07-29T02:57:13;100599.22;;;21.78;61.54
62126;BME280;69591;53.282;6.150;2023-07-29T02:58:14;100609.38;;;21.81;61.45
62126;BME280;69591;53.282;6.150;2023-07-29T02:59:16;100603.09;;;21.81;61.64
62126;BME280;69591;53.282;6.150;2023-07-29T03:00:18;100606.63;;;21.81;61.50
62126;BME280;69591;53.282;6.150;2023-07-29T03:01:19;100603.88;;;21.81;61.29
62126;BME280;69591;53.282;6.150;2023-07-29T03:02:21;100603.88;;;21.81;61.17
62126;BME280;69591;53.282;6.150;2023-07-29T03:03:23;100608.59;;;21.81;61.39
62126;BME280;69591;53.282;6.150;2023-07-29T03:04:25;100598.81;;;21.80;61.19
62126;BME280;69591;53.282;6.150;2023-07-29T03:05:27;100605.06;;;21.80;61.37
62126;BME280;69591;53.282;6.150;2023-07-29T03:06:29;100603.53;;;21.79;61.46
62126;BME280;69591;53.282;6.150;2023-07-29T03:07:31;100604.31;;;21.80;61.41
62126;BME280;69591;53.282;6.150;2023-07-29T03:08:33;100600.78;;;21.79;61.12
62126;BME280;69591;53.282;6.150;2023-07-29T03:09:35;100595.28;;;21.79;61.65
62126;BME280;69591;53.282;6.150;2023-07-29T03:10:37;100600.78;;;21.79;61.42
62126;BME280;69591;53.282;6.150;2023-07-29T03:11:39;100599.22;;;21.78;61.15
62126;BME280;69591;53.282;6.150;2023-07-29T03:12:42;100595.28;;;21.79;61.28
62126;BME280;69591;53.282;6.150;2023-07-29T03:13:43;100597.66;;;21.77;61.79
62126;BME280;69591;53.282;6.150;2023-07-29T03:14:47;100602.75;;;21.79;61.23
62126;BME280;69591;53.282;6.150;2023-07-29T03:15:49;100601.63;;;21.76;61.72
62126;BME280;69591;53.282;6.150;2023-07-29T03:16:50;100602.41;;;21.77;61.38
62126;BME280;69591;53.282;6.150;2023-07-29T03:17:52;100594.91;;;21.77;61.67
62126;BME280;69591;53.282;6.150;2023-07-29T03:18:54;100591.41;;;21.77;61.39
62126;BME280;69591;53.282;6.150;2023-07-29T03:19:56;100596.91;;;21.77;61.52
62126;BME280;69591;53.282;6.150;2023-07-29T03:20:57;100600.84;;;21.76;61.17
62126;BME280;69591;53.282;6.150;2023-07-29T03:21:59;100604.38;;;21.76;61.28
62126;BME280;69591;53.282;6.150;2023-07-29T03:23:01;100598.09;;;21.76;61.27
62126;BME280;69591;53.282;6.150;2023-07-29T03:24:02;100600.09;;;21.75;61.82
62126;BME280;69591;53.282;6.150;2023-07-29T03:25:05;100593.00;;;21.74;61.33
62126;BME280;69591;53.282;6.150;2023-07-29T03:26:07;100601.22;;;21.74;61.89
62126;BME280;69591;53.282;6.150;2023-07-29T03:27:08;100594.97;;;21.74;61.23
62126;BME280;69591;53.282;6.150;2023-07-29T03:28:11;100604.75;;;21.75;61.65
62126;BME280;69591;53.282;6.150;2023-07-29T03:29:13;100602.44;;;21.73;61.40
62126;BME280;69591;53.282;6.150;2023-07-29T03:30:15;100599.69;;;21.73;61.51
62126;BME280;69591;53.282;6.150;2023-07-29T03:31:16;100596.16;;;21.73;61.60
62126;BME280;69591;53.282;6.150;2023-07-29T03:32:19;100591.09;;;21.71;61.95
62126;BME280;69591;53.282;6.150;2023-07-29T03:33:22;100594.63;;;21.72;61.30
62126;BME280;69591;53.282;6.150;2023-07-29T03:34:24;100600.13;;;21.72;61.45
62126;BME280;69591;53.282;6.150;2023-07-29T03:35:25;100595.38;;;21.72;61.61
62126;BME280;69591;53.282;6.150;2023-07-29T03:36:27;100601.28;;;21.71;61.72
62126;BME280;69591;53.282;6.150;2023-07-29T03:37:29;100593.84;;;21.71;61.83
62126;BME280;69591;53.282;6.150;2023-07-29T03:38:30;100593.84;;;21.71;61.75
62126;BME280;69591;53.282;6.150;2023-07-29T03:39:32;100594.63;;;21.72;61.47
62126;BME280;69591;53.282;6.150;2023-07-29T03:40:34;100593.84;;;21.71;61.49
62126;BME280;69591;53.282;6.150;2023-07-29T03:41:35;100592.28;;;21.70;61.37
62126;BME280;69591;53.282;6.150;2023-07-29T03:42:37;100597.78;;;21.70;61.97
62126;BME280;69591;53.282;6.150;2023-07-29T03:43:40;100591.09;;;21.71;62.00
62126;BME280;69591;53.282;6.150;2023-07-29T03:44:42;100597.78;;;21.70;61.47
62126;BME280;69591;53.282;6.150;2023-07-29T03:45:43;100593.47;;;21.69;61.86
62126;BME280;69591;53.282;6.150;2023-07-29T03:46:45;100603.28;;;21.70;61.60
62126;BME280;69591;53.282;6.150;2023-07-29T03:47:47;100604.47;;;21.69;61.50
62126;BME280;69591;53.282;6.150;2023-07-29T03:48:49;100602.50;;;21.70;61.85
62126;BME280;69591;53.282;6.150;2023-07-29T03:49:50;100601.72;;;21.69;61.95
62126;BME280;69591;53.282;6.150;2023-07-29T03:50:55;100594.69;;;21.68;61.49
62126;BME280;69591;53.282;6.150;2023-07-29T03:51:57;100587.63;;;21.67;61.54
62126;BME280;69591;53.282;6.150;2023-07-29T03:52:58;100593.47;;;21.69;61.49
62126;BME280;69591;53.282;6.150;2023-07-29T03:54:00;100587.22;;;21.69;61.50
62126;BME280;69591;53.282;6.150;2023-07-29T03:55:02;100586.44;;;21.68;61.52
62126;BME280;69591;53.282;6.150;2023-07-29T03:56:04;100582.47;;;21.69;61.65
62126;BME280;69591;53.282;6.150;2023-07-29T03:57:05;100583.69;;;21.68;62.09
62126;BME280;69591;53.282;6.150;2023-07-29T03:58:07;100586.44;;;21.68;62.08
62126;BME280;69591;53.282;6.150;2023-07-29T03:59:10;100575.81;;;21.70;61.39
62126;BME280;69591;53.282;6.150;2023-07-29T04:00:12;100579.41;;;21.67;61.86
62126;BME280;69591;53.282;6.150;2023-07-29T04:01:17;100578.19;;;21.68;61.99
62126;BME280;69591;53.282;6.150;2023-07-29T04:02:18;100581.72;;;21.69;61.71
62126;BME280;69591;53.282;6.150;2023-07-29T04:03:20;100573.47;;;21.69;61.50
62126;BME280;69591;53.282;6.150;2023-07-29T04:04:23;100573.47;;;21.69;62.06
62126;BME280;69591;53.282;6.150;2023-07-29T04:05:25;100562.56;;;21.65;61.91
62126;BME280;69591;53.282;6.150;2023-07-29T04:06:26;100567.56;;;21.70;61.51
62126;BME280;69591;53.282;6.150;2023-07-29T04:07:28;100566.34;;;21.71;61.46
62126;BME280;69591;53.282;6.150;2023-07-29T04:08:30;100567.13;;;21.72;61.69
62126;BME280;69591;53.282;6.150;2023-07-29T04:09:32;100567.88;;;21.72;61.47
62126;BME280;69591;53.282;6.150;2023-07-29T04:10:33;100570.25;;;21.74;61.35
62126;BME280;69591;53.282;6.150;2023-07-29T04:11:35;100574.97;;;21.73;61.24
62126;BME280;69591;53.282;6.150;2023-07-29T04:12:37;100573.75;;;21.74;61.67
62126;BME280;69591;53.282;6.150;2023-07-29T04:13:39;100571.00;;;21.74;61.63
62126;BME280;69591;53.282;6.150;2023-07-29T04:14:41;100568.66;;;21.76;61.52
62126;BME280;69591;53.282;6.150;2023-07-29T04:15:43;100572.59;;;21.75;61.59
62126;BME280;69591;53.282;6.150;2023-07-29T04:16:45;100574.13;;;21.76;61.48
62126;BME280;69591;53.282;6.150;2023-07-29T04:17:50;100574.13;;;21.76;61.31
62126;BME280;69591;53.282;6.150;2023-07-29T04:18:52;100576.09;;;21.76;61.67
62126;BME280;69591;53.282;6.150;2023-07-29T04:19:54;100574.50;;;21.78;61.20
62126;BME280;69591;53.282;6.150;2023-07-29T04:21:00;100577.25;;;21.78;61.55
62126;BME280;69591;53.282;6.150;2023-07-29T04:22:02;100572.50;;;21.79;61.17
62126;BME280;69591;53.282;6.150;2023-07-29T04:23:04;100583.06;;;21.80;61.08
62126;BME280;69591;53.282;6.150;2023-07-29T04:24:05;100581.91;;;21.81;61.17
62126;BME280;69591;53.282;6.150;2023-07-29T04:25:07;100574.41;;;21.82;61.34
62126;BME280;69591;53.282;6.150;2023-07-29T04:26:09;100575.19;;;21.82;61.47
62126;BME280;69591;53.282;6.150;2023-07-29T04:27:10;100572.03;;;21.84;61.60
62126;BME280;69591;53.282;6.150;2023-07-29T04:28:12;100563.78;;;21.84;61.07
62126;BME280;69591;53.282;6.150;2023-07-29T04:29:14;100578.66;;;21.86;61.05
62126;BME280;69591;53.282;6.150;2023-07-29T04:30:17;100577.44;;;21.87;61.35
62126;BME280;69591;53.282;6.150;2023-07-29T04:31:19;100580.19;;;21.87;61.50
62126;BME280;69591;53.282;6.150;2023-07-29T04:32:20;100586.47;;;21.88;61.06
62126;BME280;69591;53.282;6.150;2023-07-29T04:33:22;100586.06;;;21.89;61.20
62126;BME280;69591;53.282;6.150;2023-07-29T04:34:24;100576.59;;;21.90;61.40
62126;BME280;69591;53.282;6.150;2023-07-29T04:35:25;100580.88;;;21.91;60.71
62126;BME280;69591;53.282;6.150;2023-07-29T04:36:27;100579.72;;;21.92;61.39
62126;BME280;69591;53.282;6.150;2023-07-29T04:37:29;100576.97;;;21.92;60.99
62126;BME280;69591;53.282;6.150;2023-07-29T04:38:32;100577.31;;;21.94;60.88
62126;BME280;69591;53.282;6.150;2023-07-29T04:39:34;100580.06;;;21.94;61.17
62126;BME280;69591;53.282;6.150;2023-07-29T04:40:36;100575.75;;;21.93;61.15
62126;BME280;69591;53.282;6.150;2023-07-29T04:41:37;100577.31;;;21.94;60.66
62126;BME280;69591;53.282;6.150;2023-07-29T04:42:39;100583.16;;;21.96;60.97
62126;BME280;69591;53.282;6.150;2023-07-29T04:43:42;100580.41;;;21.96;61.13
62126;BME280;69591;53.282;6.150;2023-07-29T04:44:43;100583.50;;;21.98;61.12
62126;BME280;69591;53.282;6.150;2023-07-29T04:45:46;100591.75;;;21.98;61.06
62126;BME280;69591;53.282;6.150;2023-07-29T04:46:48;100584.72;;;21.97;61.21
62126;BME280;69591;53.282;6.150;2023-07-29T04:47:49;100586.25;;;21.98;61.07
62126;BME280;69591;53.282;6.150;2023-07-29T04:48:51;100594.09;;;22.00;60.50
62126;BME280;69591;53.282;6.150;2023-07-29T04:49:53;100585.84;;;22.00;60.47
62126;BME280;69591;53.282;6.150;2023-07-29T04:50:54;100582.31;;;21.99;60.74
62126;BME280;69591;53.282;6.150;2023-07-29T04:51:56;100578.38;;;22.00;61.13
62126;BME280;69591;53.282;6.150;2023-07-29T04:52:58;100584.63;;;22.01;60.96
62126;BME280;69591;53.282;6.150;2023-07-29T04:54:00;100579.91;;;22.01;60.85
62126;BME280;69591;53.282;6.150;2023-07-29T04:55:01;100577.16;;;22.01;60.67
62126;BME280;69591;53.282;6.150;2023-07-29T04:56:03;100574.00;;;22.03;61.01
62126;BME280;69591;53.282;6.150;2023-07-29T04:57:05;100577.94;;;22.02;60.86
62126;BME280;69591;53.282;6.150;2023-07-29T04:58:07;100581.44;;;22.02;60.85
62126;BME280;69591;53.282;6.150;2023-07-29T04:59:10;100578.69;;;22.02;60.85
62126;BME280;69591;53.282;6.150;2023-07-29T05:00:13;100584.19;;;22.02;60.96
62126;BME280;69591;53.282;6.150;2023-07-29T05:01:16;100578.31;;;22.04;60.63
62126;BME280;69591;53.282;6.150;2023-07-29T05:02:17;100592.06;;;22.04;60.76
62126;BME280;69591;53.282;6.150;2023-07-29T05:03:19;100589.31;;;22.04;60.81
62126;BME280;69591;53.282;6.150;2023-07-29T05:04:21;100590.84;;;22.05;61.02
62126;BME280;69591;53.282;6.150;2023-07-29T05:05:22;100580.63;;;22.05;60.82
62126;BME280;69591;53.282;6.150;2023-07-29T05:06:24;100593.94;;;22.07;60.85
62126;BME280;69591;53.282;6.150;2023-07-29T05:07:26;100589.22;;;22.07;60.47
62126;BME280;69591;53.282;6.150;2023-07-29T05:08:28;100581.75;;;22.08;60.72
62126;BME280;69591;53.282;6.150;2023-07-29T05:09:30;100579.78;;;22.08;60.46
62126;BME280;69591;53.282;6.150;2023-07-29T05:10:31;100585.59;;;22.10;60.47
62126;BME280;69591;53.282;6.150;2023-07-29T05:11:33;100575.41;;;22.11;60.44
62126;BME280;69591;53.282;6.150;2023-07-29T05:12:35;100580.09;;;22.10;60.20
62126;BME280;69591;53.282;6.150;2023-07-29T05:13:36;100579.69;;;22.12;60.57
62126;BME280;69591;53.282;6.150;2023-07-29T05:14:38;100577.72;;;22.12;60.72
62126;BME280;69591;53.282;6.150;2023-07-29T05:15:40;100573.00;;;22.13;60.80
62126;BME280;69591;53.282;6.150;2023-07-29T05:16:43;100582.38;;;22.15;60.75
62126;BME280;69591;53.282;6.150;2023-07-29T05:17:45;100582.03;;;22.13;60.51
62126;BME280;69591;53.282;6.150;2023-07-29T05:18:47;100582.38;;;22.15;60.53
62126;BME280;69591;53.282;6.150;2023-07-29T05:19:48;100572.16;;;22.16;60.48
62126;BME280;69591;53.282;6.150;2023-07-29T05:20:50;100571.72;;;22.17;60.14
62126;BME280;69591;53.282;6.150;2023-07-29T05:21:52;100574.47;;;22.17;59.95
62126;BME280;69591;53.282;6.150;2023-07-29T05:22:54;100580.34;;;22.19;60.21
62126;BME280;69591;53.282;6.150;2023-07-29T05:23:55;100568.13;;;22.20;60.53
62126;BME280;69591;53.282;6.150;2023-07-29T05:24:57;100576.38;;;22.20;60.36
62126;BME280;69591;53.282;6.150;2023-07-29T05:25:59;100572.41;;;22.21;60.14